Time,TemperatureF,DewpointF,PressureIn,WindDirection,WindDirectionDegrees,WindSpeedMPH,WindSpeedGustMPH,Humidity,HourlyPrecipIn,Conditions,Clouds,dailyrainin,SoftwareType,DateUTC
2013-05-26 00:03:00,64.0,12.1,30.03,West,270,3.0,8.0,13,0.00,,,0.00,Weather View 32 v70,2013-05-26 06:03:00,
2013-05-26 00:08:00,64.0,13.8,30.03,WNW,292,3.0,8.0,14,0.00,,,0.00,Weather View 32 v70,2013-05-26 06:08:00,
2013-05-26 00:13:00,63.0,14.5,30.03,West,270,4.0,8.0,15,0.00,,,0.00,Weather View 32 v70,2013-05-26 06:13:00,
2013-05-26 00:18:00,63.0,13.0,30.03,WSW,247,0.0,8.0,14,0.00,,,0.00,Weather View 32 v70,2013-05-26 06:18:00,
2013-05-26 00:23:00,63.0,13.0,30.03,West,270,2.0,8.0,14,0.00,,,0.00,Weather View 32 v70,2013-05-26 06:23:00,
2013-05-26 00:28:00,63.0,14.5,30.03,NW,315,4.0,8.0,15,0.00,,,0.00,Weather View 32 v70,2013-05-26 06:28:00,
2013-05-26 00:33:00,62.0,8.7,30.03,NW,315,4.0,8.0,12,0.00,,,0.00,Weather View 32 v70,2013-05-26 06:33:00,
2013-05-26 00:38:00,63.0,11.3,30.04,WNW,292,5.0,8.0,13,0.00,,,0.00,Weather View 32 v70,2013-05-26 06:38:00,
2013-05-26 00:43:00,62.0,8.7,30.04,West,270,3.0,8.0,12,0.00,,,0.00,Weather View 32 v70,2013-05-26 06:43:00,
2013-05-26 00:48:00,62.0,12.2,30.04,WNW,292,3.0,8.0,14,0.00,,,0.00,Weather View 32 v70,2013-05-26 06:48:00,
2013-05-26 00:53:00,62.0,10.5,30.04,West,270,3.0,8.0,13,0.00,,,0.00,Weather View 32 v70,2013-05-26 06:53:00,
2013-05-26 00:58:00,62.0,13.7,30.05,West,270,4.0,8.0,15,0.00,,,0.00,Weather View 32 v70,2013-05-26 06:58:00,
2013-05-26 01:03:00,61.0,9.7,30.05,WNW,292,6.0,9.0,13,0.00,,,0.00,Weather View 32 v70,2013-05-26 07:03:00,
2013-05-26 01:08:00,61.0,9.7,30.05,WNW,292,5.0,9.0,13,0.00,,,0.00,Weather View 32 v70,2013-05-26 07:08:00,
2013-05-26 01:13:00,61.0,9.7,30.05,WNW,292,0.0,9.0,13,0.00,,,0.00,Weather View 32 v70,2013-05-26 07:13:00,
2013-05-26 01:18:00,61.0,7.9,30.05,SW,225,1.0,9.0,12,0.00,,,0.00,Weather View 32 v70,2013-05-26 07:18:00,
2013-05-26 01:23:00,61.0,12.9,30.05,SW,225,0.0,9.0,15,0.00,,,0.00,Weather View 32 v70,2013-05-26 07:23:00,
2013-05-26 01:28:00,61.0,12.9,30.05,NW,315,4.0,9.0,15,0.00,,,0.00,Weather View 32 v70,2013-05-26 07:28:00,
2013-05-26 01:33:00,60.0,10.6,30.05,NW,315,3.0,9.0,14,0.00,,,0.00,Weather View 32 v70,2013-05-26 07:33:00,
2013-05-26 01:38:00,60.0,10.6,30.06,NW,315,4.0,9.0,14,0.00,,,0.00,Weather View 32 v70,2013-05-26 07:38:00,
2013-05-26 01:43:00,60.0,12.1,30.06,NW,315,3.0,9.0,15,0.00,,,0.00,Weather View 32 v70,2013-05-26 07:43:00,
2013-05-26 01:48:00,60.0,12.1,30.06,NW,315,3.0,9.0,15,0.00,,,0.00,Weather View 32 v70,2013-05-26 07:48:00,
2013-05-26 01:53:00,60.0,15.0,30.06,NW,315,3.0,9.0,17,0.00,,,0.00,Weather View 32 v70,2013-05-26 07:53:00,
2013-05-26 01:58:00,59.0,11.3,30.06,NW,315,0.0,9.0,15,0.00,,,0.00,Weather View 32 v70,2013-05-26 07:58:00,
2013-05-26 02:03:00,59.0,12.8,30.06,NW,315,0.0,9.0,16,0.00,,,0.00,Weather View 32 v70,2013-05-26 08:03:00,
2013-05-26 02:08:00,58.0,14.7,30.06,NW,315,3.0,6.0,18,0.00,,,0.00,Weather View 32 v70,2013-05-26 08:08:00,
2013-05-26 02:13:00,58.0,14.7,30.06,NW,315,0.0,5.0,18,0.00,,,0.00,Weather View 32 v70,2013-05-26 08:13:00,
2013-05-26 02:18:00,58.0,14.7,30.07,NW,315,0.0,5.0,18,0.00,,,0.00,Weather View 32 v70,2013-05-26 08:18:00,
2013-05-26 02:23:00,57.0,13.8,30.07,NW,315,0.0,5.0,18,0.00,,,0.00,Weather View 32 v70,2013-05-26 08:23:00,
2013-05-26 02:28:00,57.0,15.1,30.08,NW,315,0.0,5.0,19,0.00,,,0.00,Weather View 32 v70,2013-05-26 08:28:00,
2013-05-26 02:33:00,56.0,17.6,30.08,NW,315,3.0,5.0,22,0.00,,,0.00,Weather View 32 v70,2013-05-26 08:33:00,
2013-05-26 02:38:00,56.0,18.7,30.08,NW,315,3.0,5.0,23,0.00,,,0.00,Weather View 32 v70,2013-05-26 08:38:00,
2013-05-26 02:43:00,55.0,12.2,30.08,NW,315,0.0,5.0,18,0.00,,,0.00,Weather View 32 v70,2013-05-26 08:43:00,
2013-05-26 02:48:00,55.0,13.4,30.07,NW,315,0.0,5.0,19,0.00,,,0.00,Weather View 32 v70,2013-05-26 08:48:00,
2013-05-26 02:53:00,55.0,15.7,30.07,NW,315,1.0,5.0,21,0.00,,,0.00,Weather View 32 v70,2013-05-26 08:53:00,
2013-05-26 02:58:00,55.0,17.8,30.07,NW,315,3.0,5.0,23,0.00,,,0.00,Weather View 32 v70,2013-05-26 08:58:00,
2013-05-26 03:03:00,55.0,15.7,30.07,NW,315,1.0,5.0,21,0.00,,,0.00,Weather View 32 v70,2013-05-26 09:03:00,
2013-05-26 03:08:00,55.0,13.4,30.08,NW,315,0.0,5.0,19,0.00,,,0.00,Weather View 32 v70,2013-05-26 09:08:00,
2013-05-26 03:13:00,54.0,14.9,30.08,NW,315,0.0,5.0,21,0.00,,,0.00,Weather View 32 v70,2013-05-26 09:13:00,
2013-05-26 03:18:00,54.0,17.0,30.08,NW,315,0.0,5.0,23,0.00,,,0.00,Weather View 32 v70,2013-05-26 09:18:00,
2013-05-26 03:23:00,54.0,14.9,30.08,NW,315,0.0,5.0,21,0.00,,,0.00,Weather View 32 v70,2013-05-26 09:23:00,
2013-05-26 03:28:00,54.0,15.9,30.08,North,360,0.0,5.0,22,0.00,,,0.00,Weather View 32 v70,2013-05-26 09:28:00,
2013-05-26 03:33:00,54.0,17.0,30.08,NNE,22,3.0,5.0,23,0.00,,,0.00,Weather View 32 v70,2013-05-26 09:33:00,
2013-05-26 03:38:00,54.0,17.0,30.08,NNE,22,3.0,5.0,23,0.00,,,0.00,Weather View 32 v70,2013-05-26 09:38:00,
2013-05-26 03:43:00,54.0,15.9,30.08,NNE,22,2.0,5.0,22,0.00,,,0.00,Weather View 32 v70,2013-05-26 09:43:00,
2013-05-26 03:48:00,54.0,15.9,30.08,East,90,2.0,5.0,22,0.00,,,0.00,Weather View 32 v70,2013-05-26 09:48:00,
2013-05-26 03:53:00,54.0,14.9,30.08,NE,45,5.0,5.0,21,0.00,,,0.00,Weather View 32 v70,2013-05-26 09:53:00,
2013-05-26 03:58:00,55.0,15.7,30.09,NE,45,4.0,5.0,21,0.00,,,0.00,Weather View 32 v70,2013-05-26 09:58:00,
2013-05-26 04:03:00,54.0,15.9,30.09,NE,45,4.0,5.0,22,0.00,,,0.00,Weather View 32 v70,2013-05-26 10:03:00,
2013-05-26 04:08:00,55.0,15.7,30.09,East,90,5.0,5.0,21,0.00,,,0.00,Weather View 32 v70,2013-05-26 10:08:00,
2013-05-26 04:13:00,54.0,17.0,30.09,NE,45,5.0,6.0,23,0.00,,,0.00,Weather View 32 v70,2013-05-26 10:13:00,
2013-05-26 04:18:00,54.0,15.9,30.09,NE,45,4.0,6.0,22,0.00,,,0.00,Weather View 32 v70,2013-05-26 10:18:00,
2013-05-26 04:23:00,54.0,14.9,30.09,NE,45,4.0,6.0,21,0.00,,,0.00,Weather View 32 v70,2013-05-26 10:23:00,
2013-05-26 04:28:00,54.0,15.9,30.09,East,90,6.0,7.0,22,0.00,,,0.00,Weather View 32 v70,2013-05-26 10:28:00,
2013-05-26 04:33:00,54.0,15.9,30.09,East,90,5.0,8.0,22,0.00,,,0.00,Weather View 32 v70,2013-05-26 10:33:00,
2013-05-26 04:38:00,54.0,15.9,30.09,ENE,67,6.0,8.0,22,0.00,,,0.00,Weather View 32 v70,2013-05-26 10:38:00,
2013-05-26 04:43:00,54.0,15.9,30.09,ENE,67,6.0,8.0,22,0.00,,,0.00,Weather View 32 v70,2013-05-26 10:43:00,
2013-05-26 04:48:00,54.0,17.0,30.09,ENE,67,5.0,8.0,23,0.00,,,0.00,Weather View 32 v70,2013-05-26 10:48:00,
2013-05-26 04:53:00,54.0,17.0,30.09,ENE,67,8.0,9.0,23,0.00,,,0.00,Weather View 32 v70,2013-05-26 10:53:00,
2013-05-26 04:58:00,54.0,15.9,30.09,NE,45,4.0,9.0,22,0.00,,,0.00,Weather View 32 v70,2013-05-26 10:58:00,
2013-05-26 05:03:00,54.0,15.9,30.09,NE,45,5.0,9.0,22,0.00,,,0.00,Weather View 32 v70,2013-05-26 11:03:00,
2013-05-26 05:08:00,54.0,14.9,30.09,ENE,67,5.0,9.0,21,0.00,,,0.00,Weather View 32 v70,2013-05-26 11:08:00,
2013-05-26 05:13:00,54.0,14.9,30.09,ENE,67,6.0,9.0,21,0.00,,,0.00,Weather View 32 v70,2013-05-26 11:13:00,
2013-05-26 05:18:00,54.0,14.9,30.10,NE,45,4.0,9.0,21,0.00,,,0.00,Weather View 32 v70,2013-05-26 11:18:00,
2013-05-26 05:23:00,54.0,14.9,30.10,NE,45,6.0,9.0,21,0.00,,,0.00,Weather View 32 v70,2013-05-26 11:23:00,
2013-05-26 05:28:00,54.0,13.8,30.10,NE,45,4.0,9.0,20,0.00,,,0.00,Weather View 32 v70,2013-05-26 11:28:00,
2013-05-26 05:33:00,54.0,13.8,30.10,NE,45,4.0,9.0,20,0.00,,,0.00,Weather View 32 v70,2013-05-26 11:33:00,
2013-05-26 05:38:00,54.0,13.8,30.10,NE,45,5.0,9.0,20,0.00,,,0.00,Weather View 32 v70,2013-05-26 11:38:00,
2013-05-26 05:43:00,54.0,14.9,30.10,NE,45,4.0,9.0,21,0.00,,,0.00,Weather View 32 v70,2013-05-26 11:43:00,
2013-05-26 05:48:00,54.0,13.8,30.10,NE,45,3.0,9.0,20,0.00,,,0.00,Weather View 32 v70,2013-05-26 11:48:00,
2013-05-26 05:53:00,54.0,13.8,30.10,NE,45,5.0,9.0,20,0.00,,,0.00,Weather View 32 v70,2013-05-26 11:53:00,
2013-05-26 05:58:00,54.0,13.8,30.10,NE,45,4.0,8.0,20,0.00,,,0.00,Weather View 32 v70,2013-05-26 11:58:00,
2013-05-26 06:03:00,54.0,13.8,30.10,NE,45,5.0,8.0,20,0.00,,,0.00,Weather View 32 v70,2013-05-26 12:03:00,
2013-05-26 06:08:00,54.0,14.9,30.10,NE,45,4.0,8.0,21,0.00,,,0.00,Weather View 32 v70,2013-05-26 12:08:00,
2013-05-26 06:13:00,53.0,15.1,30.10,NE,45,3.0,8.0,22,0.00,,,0.00,Weather View 32 v70,2013-05-26 12:13:00,
2013-05-26 06:18:00,53.0,16.1,30.11,ENE,67,5.0,7.0,23,0.00,,,0.00,Weather View 32 v70,2013-05-26 12:18:00,
2013-05-26 06:23:00,53.0,17.1,30.11,NE,45,4.0,7.0,24,0.00,,,0.00,Weather View 32 v70,2013-05-26 12:23:00,
2013-05-26 06:28:00,53.0,19.0,30.11,East,90,5.0,7.0,26,0.00,,,0.00,Weather View 32 v70,2013-05-26 12:28:00,
2013-05-26 06:33:00,52.0,19.0,30.11,East,90,8.0,9.0,27,0.00,,,0.00,Weather View 32 v70,2013-05-26 12:33:00,
2013-05-26 06:38:00,52.0,18.1,30.11,ENE,67,7.0,10.0,26,0.00,,,0.00,Weather View 32 v70,2013-05-26 12:38:00,
2013-05-26 06:43:00,51.0,16.4,30.11,NE,45,5.0,10.0,25,0.00,,,0.00,Weather View 32 v70,2013-05-26 12:43:00,
2013-05-26 06:48:00,52.0,15.3,30.11,NE,45,6.0,10.0,23,0.00,,,0.00,Weather View 32 v70,2013-05-26 12:48:00,
2013-05-26 06:53:00,52.0,15.3,30.11,ENE,67,7.0,10.0,23,0.00,,,0.00,Weather View 32 v70,2013-05-26 12:53:00,
2013-05-26 06:58:00,52.0,16.3,30.12,NE,45,7.0,10.0,24,0.00,,,0.00,Weather View 32 v70,2013-05-26 12:58:00,
2013-05-26 07:03:00,52.0,16.3,30.12,ENE,67,7.0,10.0,24,0.00,,,0.00,Weather View 32 v70,2013-05-26 13:03:00,
2013-05-26 07:08:00,52.0,16.3,30.12,NE,45,4.0,10.0,24,0.00,,,0.00,Weather View 32 v70,2013-05-26 13:08:00,
2013-05-26 07:13:00,52.0,16.3,30.12,ENE,67,8.0,10.0,24,0.00,,,0.00,Weather View 32 v70,2013-05-26 13:13:00,
2013-05-26 07:18:00,53.0,17.1,30.12,ENE,67,9.0,10.0,24,0.00,,,0.00,Weather View 32 v70,2013-05-26 13:18:00,
2013-05-26 07:23:00,53.0,17.1,30.12,ENE,67,7.0,10.0,24,0.00,,,0.00,Weather View 32 v70,2013-05-26 13:23:00,
2013-05-26 07:28:00,53.0,17.1,30.12,ENE,67,9.0,11.0,24,0.00,,,0.00,Weather View 32 v70,2013-05-26 13:28:00,
2013-05-26 07:33:00,53.0,17.1,30.12,ENE,67,8.0,11.0,24,0.00,,,0.00,Weather View 32 v70,2013-05-26 13:33:00,
2013-05-26 07:38:00,53.0,18.1,30.13,ENE,67,9.0,13.0,25,0.00,,,0.00,Weather View 32 v70,2013-05-26 13:38:00,
2013-05-26 07:43:00,54.0,18.9,30.13,ENE,67,7.0,13.0,25,0.00,,,0.00,Weather View 32 v70,2013-05-26 13:43:00,
2013-05-26 07:48:00,55.0,18.8,30.12,ENE,67,10.0,13.0,24,0.00,,,0.00,Weather View 32 v70,2013-05-26 13:48:00,
2013-05-26 07:53:00,55.0,18.8,30.12,East,90,13.0,13.0,24,0.00,,,0.00,Weather View 32 v70,2013-05-26 13:53:00,
2013-05-26 07:58:00,55.0,19.8,30.12,ENE,67,9.0,14.0,25,0.00,,,0.00,Weather View 32 v70,2013-05-26 13:58:00,
2013-05-26 08:03:00,55.0,19.8,30.12,East,90,11.0,14.0,25,0.00,,,0.00,Weather View 32 v70,2013-05-26 14:03:00,
2013-05-26 08:08:00,57.0,19.5,30.12,ENE,67,6.0,14.0,23,0.00,,,0.00,Weather View 32 v70,2013-05-26 14:08:00,
2013-05-26 08:13:00,58.0,18.2,30.12,ENE,67,8.0,14.0,21,0.00,,,0.00,Weather View 32 v70,2013-05-26 14:13:00,
2013-05-26 08:18:00,59.0,19.0,30.12,East,90,9.0,14.0,21,0.00,,,0.00,Weather View 32 v70,2013-05-26 14:18:00,
2013-05-26 08:23:00,59.0,20.1,30.12,ENE,67,9.0,14.0,22,0.00,,,0.00,Weather View 32 v70,2013-05-26 14:23:00,
2013-05-26 08:28:00,60.0,19.9,30.12,East,90,7.0,14.0,21,0.00,,,0.00,Weather View 32 v70,2013-05-26 14:28:00,
2013-05-26 08:33:00,60.0,19.9,30.12,East,90,4.0,14.0,21,0.00,,,0.00,Weather View 32 v70,2013-05-26 14:33:00,
2013-05-26 08:38:00,61.0,20.7,30.11,ENE,67,7.0,14.0,21,0.00,,,0.00,Weather View 32 v70,2013-05-26 14:38:00,
2013-05-26 08:43:00,61.0,20.7,30.11,ENE,67,5.0,14.0,21,0.00,,,0.00,Weather View 32 v70,2013-05-26 14:43:00,
2013-05-26 08:48:00,61.0,19.6,30.12,East,90,10.0,14.0,20,0.00,,,0.00,Weather View 32 v70,2013-05-26 14:48:00,
2013-05-26 08:53:00,61.0,19.6,30.12,ENE,67,6.0,14.0,20,0.00,,,0.00,Weather View 32 v70,2013-05-26 14:53:00,
2013-05-26 08:58:00,62.0,19.2,30.11,NE,45,6.0,13.0,19,0.00,,,0.00,Weather View 32 v70,2013-05-26 14:58:00,
2013-05-26 09:03:00,62.0,19.2,30.11,ENE,67,8.0,13.0,19,0.00,,,0.00,Weather View 32 v70,2013-05-26 15:03:00,
2013-05-26 09:08:00,63.0,21.2,30.10,NE,45,7.0,13.0,20,0.00,,,0.00,Weather View 32 v70,2013-05-26 15:08:00,
2013-05-26 09:13:00,63.0,21.2,30.10,ENE,67,7.0,13.0,20,0.00,,,0.00,Weather View 32 v70,2013-05-26 15:13:00,
2013-05-26 09:18:00,63.0,21.2,30.10,ENE,67,7.0,13.0,20,0.00,,,0.00,Weather View 32 v70,2013-05-26 15:18:00,
2013-05-26 09:23:00,63.0,21.2,30.10,ENE,67,8.0,13.0,20,0.00,,,0.00,Weather View 32 v70,2013-05-26 15:23:00,
2013-05-26 09:28:00,64.0,20.8,30.11,NE,45,6.0,13.0,19,0.00,,,0.00,Weather View 32 v70,2013-05-26 15:28:00,
2013-05-26 09:33:00,65.0,20.4,30.11,ENE,67,10.0,13.0,18,0.00,,,0.00,Weather View 32 v70,2013-05-26 15:33:00,
2013-05-26 09:38:00,66.0,19.8,30.10,East,90,8.0,13.0,17,0.00,,,0.00,Weather View 32 v70,2013-05-26 15:38:00,
2013-05-26 09:43:00,67.0,17.7,30.10,NE,45,6.0,13.0,15,0.00,,,0.00,Weather View 32 v70,2013-05-26 15:43:00,
2013-05-26 09:48:00,67.0,19.2,30.09,East,90,7.0,13.0,16,0.00,,,0.00,Weather View 32 v70,2013-05-26 15:48:00,
2013-05-26 09:53:00,68.0,20.0,30.09,ENE,67,6.0,13.0,16,0.00,,,0.00,Weather View 32 v70,2013-05-26 15:53:00,
2013-05-26 09:58:00,69.0,16.0,30.09,NE,45,5.0,12.0,13,0.00,,,0.00,Weather View 32 v70,2013-05-26 15:58:00,
2013-05-26 10:03:00,68.0,15.2,30.09,NE,45,3.0,12.0,13,0.00,,,0.00,Weather View 32 v70,2013-05-26 16:03:00,
2013-05-26 10:08:00,70.0,14.9,30.09,East,90,5.0,12.0,12,0.00,,,0.00,Weather View 32 v70,2013-05-26 16:08:00,
2013-05-26 10:13:00,71.0,15.7,30.09,East,90,5.0,12.0,12,0.00,,,0.00,Weather View 32 v70,2013-05-26 16:13:00,
2013-05-26 10:18:00,72.0,14.5,30.08,East,90,3.0,12.0,11,0.00,,,0.00,Weather View 32 v70,2013-05-26 16:18:00,
2013-05-26 10:23:00,73.0,15.3,30.08,NE,45,8.0,12.0,11,0.00,,,0.00,Weather View 32 v70,2013-05-26 16:23:00,
2013-05-26 10:28:00,73.0,17.3,30.08,NE,45,0.0,12.0,12,0.00,,,0.00,Weather View 32 v70,2013-05-26 16:28:00,
2013-05-26 10:33:00,73.0,20.9,30.08,North,360,2.0,12.0,14,0.00,,,0.00,Weather View 32 v70,2013-05-26 16:33:00,
2013-05-26 10:38:00,74.0,13.9,30.07,NW,315,6.0,10.0,10,0.00,,,0.00,Weather View 32 v70,2013-05-26 16:38:00,
2013-05-26 10:43:00,74.0,16.0,30.07,NNW,337,0.0,10.0,11,0.00,,,0.00,Weather View 32 v70,2013-05-26 16:43:00,
2013-05-26 10:48:00,76.0,17.6,30.07,NW,315,1.0,10.0,11,0.00,,,0.00,Weather View 32 v70,2013-05-26 16:48:00,
2013-05-26 10:53:00,76.0,24.9,30.07,West,270,5.0,10.0,15,0.00,,,0.00,Weather View 32 v70,2013-05-26 16:53:00,
2013-05-26 10:58:00,77.0,16.1,30.06,NW,315,5.0,10.0,10,0.00,,,0.00,Weather View 32 v70,2013-05-26 16:58:00,
2013-05-26 11:03:00,77.0,18.4,30.06,West,270,8.0,10.0,11,0.00,,,0.00,Weather View 32 v70,2013-05-26 17:03:00,
2013-05-26 11:08:00,77.0,13.7,30.06,South,180,8.0,10.0,9,0.00,,,0.00,Weather View 32 v70,2013-05-26 17:08:00,
2013-05-26 11:13:00,77.0,18.4,30.06,NW,315,6.0,10.0,11,0.00,,,0.00,Weather View 32 v70,2013-05-26 17:13:00,
2013-05-26 11:18:00,77.0,18.4,30.06,SW,225,7.0,10.0,11,0.00,,,0.00,Weather View 32 v70,2013-05-26 17:18:00,
2013-05-26 11:23:00,77.0,18.4,30.06,West,270,6.0,15.0,11,0.00,,,0.00,Weather View 32 v70,2013-05-26 17:23:00,
2013-05-26 11:28:00,77.0,13.7,30.06,West,270,8.0,16.0,9,0.00,,,0.00,Weather View 32 v70,2013-05-26 17:28:00,
2013-05-26 11:33:00,77.0,18.4,30.06,West,270,5.0,16.0,11,0.00,,,0.00,Weather View 32 v70,2013-05-26 17:33:00,
2013-05-26 11:38:00,77.0,11.1,30.06,South,180,8.0,16.0,8,0.00,,,0.00,Weather View 32 v70,2013-05-26 17:38:00,
2013-05-26 11:43:00,77.0,11.1,30.06,SW,225,8.0,19.0,8,0.00,,,0.00,Weather View 32 v70,2013-05-26 17:43:00,
2013-05-26 11:48:00,77.0,11.1,30.06,SW,225,11.0,19.0,8,0.00,,,0.00,Weather View 32 v70,2013-05-26 17:48:00,
2013-05-26 11:53:00,76.0,15.4,30.06,SW,225,5.0,19.0,10,0.00,,,0.00,Weather View 32 v70,2013-05-26 17:53:00,
2013-05-26 11:58:00,77.0,13.7,30.05,West,270,5.0,19.0,9,0.00,,,0.00,Weather View 32 v70,2013-05-26 17:58:00,
2013-05-26 12:03:00,77.0,13.7,30.05,SW,225,6.0,19.0,9,0.00,,,0.00,Weather View 32 v70,2013-05-26 18:03:00,
2013-05-26 12:08:00,78.0,14.5,30.05,SW,225,9.0,19.0,9,0.00,,,0.00,Weather View 32 v70,2013-05-26 18:08:00,
2013-05-26 12:13:00,77.0,13.7,30.05,SSW,202,4.0,19.0,9,0.00,,,0.00,Weather View 32 v70,2013-05-26 18:13:00,
2013-05-26 12:18:00,78.0,19.1,30.05,West,270,4.0,19.0,11,0.00,,,0.00,Weather View 32 v70,2013-05-26 18:18:00,
2013-05-26 12:23:00,78.0,14.5,30.05,NW,315,5.0,19.0,9,0.00,,,0.00,Weather View 32 v70,2013-05-26 18:23:00,
2013-05-26 12:28:00,78.0,23.1,30.04,West,270,11.0,19.0,13,0.00,,,0.00,Weather View 32 v70,2013-05-26 18:28:00,
2013-05-26 12:33:00,78.0,14.5,30.04,West,270,9.0,19.0,9,0.00,,,0.00,Weather View 32 v70,2013-05-26 18:33:00,
2013-05-26 12:38:00,78.0,11.8,30.04,SW,225,11.0,19.0,8,0.00,,,0.00,Weather View 32 v70,2013-05-26 18:38:00,
2013-05-26 12:43:00,78.0,11.8,30.04,South,180,9.0,18.0,8,0.00,,,0.00,Weather View 32 v70,2013-05-26 18:43:00,
2013-05-26 12:48:00,78.0,11.8,30.04,SW,225,10.0,16.0,8,0.00,,,0.00,Weather View 32 v70,2013-05-26 18:48:00,
2013-05-26 12:53:00,78.0,11.8,30.04,NW,315,6.0,16.0,8,0.00,,,0.00,Weather View 32 v70,2013-05-26 18:53:00,
2013-05-26 12:58:00,78.0,16.9,30.03,WSW,247,11.0,16.0,10,0.00,,,0.00,Weather View 32 v70,2013-05-26 18:58:00,
2013-05-26 13:03:00,78.0,11.8,30.03,SW,225,10.0,16.0,8,0.00,,,0.00,Weather View 32 v70,2013-05-26 19:03:00,
2013-05-26 13:08:00,78.0,16.9,30.03,SW,225,6.0,16.0,10,0.00,,,0.00,Weather View 32 v70,2013-05-26 19:08:00,
2013-05-26 13:13:00,78.0,11.8,30.03,SW,225,10.0,16.0,8,0.00,,,0.00,Weather View 32 v70,2013-05-26 19:13:00,
2013-05-26 13:18:00,79.0,15.2,30.03,SW,225,9.0,20.0,9,0.00,,,0.00,Weather View 32 v70,2013-05-26 19:18:00,
2013-05-26 13:23:00,79.0,17.7,30.03,NW,315,3.0,20.0,10,0.00,,,0.00,Weather View 32 v70,2013-05-26 19:23:00,
2013-05-26 13:28:00,79.0,12.5,30.03,West,270,4.0,20.0,8,0.00,,,0.00,Weather View 32 v70,2013-05-26 19:28:00,
2013-05-26 13:33:00,79.0,12.5,30.03,NW,315,3.0,20.0,8,0.00,,,0.00,Weather View 32 v70,2013-05-26 19:33:00,
2013-05-26 13:38:00,80.0,13.3,30.02,SW,225,6.0,20.0,8,0.00,,,0.00,Weather View 32 v70,2013-05-26 19:38:00,
2013-05-26 13:43:00,80.0,13.3,30.02,WSW,247,5.0,20.0,8,0.00,,,0.00,Weather View 32 v70,2013-05-26 19:43:00,
2013-05-26 13:48:00,80.0,13.3,30.01,NW,315,4.0,20.0,8,0.00,,,0.00,Weather View 32 v70,2013-05-26 19:48:00,
2013-05-26 13:53:00,80.0,13.3,30.01,West,270,4.0,20.0,8,0.00,,,0.00,Weather View 32 v70,2013-05-26 19:53:00,
2013-05-26 13:58:00,81.0,14.0,30.01,West,270,1.0,20.0,8,0.00,,,0.00,Weather View 32 v70,2013-05-26 19:58:00,
2013-05-26 14:04:00,81.0,14.0,30.01,NW,315,6.0,20.0,8,0.00,,,0.00,Weather View 32 v70,2013-05-26 20:04:00,
2013-05-26 14:09:00,81.0,14.0,30.00,SW,225,9.0,20.0,8,0.00,,,0.00,Weather View 32 v70,2013-05-26 20:09:00,
2013-05-26 14:14:00,81.0,14.0,30.00,West,270,9.0,20.0,8,0.00,,,0.00,Weather View 32 v70,2013-05-26 20:14:00,
2013-05-26 14:19:00,81.0,11.0,30.00,North,360,3.0,18.0,7,0.00,,,0.00,Weather View 32 v70,2013-05-26 20:19:00,
2013-05-26 14:24:00,81.0,16.7,30.00,SW,225,5.0,18.0,9,0.00,,,0.00,Weather View 32 v70,2013-05-26 20:24:00,
2013-05-26 14:29:00,81.0,21.4,30.00,WSW,247,9.0,18.0,11,0.00,,,0.00,Weather View 32 v70,2013-05-26 20:29:00,
2013-05-26 14:34:00,81.0,16.7,30.00,NW,315,6.0,18.0,9,0.00,,,0.00,Weather View 32 v70,2013-05-26 20:34:00,
2013-05-26 14:39:00,80.0,13.3,29.99,SW,225,0.0,13.0,8,0.00,,,0.00,Weather View 32 v70,2013-05-26 20:39:00,
2013-05-26 14:44:00,80.0,24.6,29.99,WSW,247,6.0,15.0,13,0.00,,,0.00,Weather View 32 v70,2013-05-26 20:44:00,
2013-05-26 14:49:00,81.0,16.7,29.99,West,270,10.0,15.0,9,0.00,,,0.00,Weather View 32 v70,2013-05-26 20:49:00,
2013-05-26 14:54:00,81.0,14.0,29.99,West,270,7.0,19.0,8,0.00,,,0.00,Weather View 32 v70,2013-05-26 20:54:00,
2013-05-26 14:59:00,81.0,16.7,29.99,West,270,9.0,19.0,9,0.00,,,0.00,Weather View 32 v70,2013-05-26 20:59:00,
2013-05-26 15:04:00,81.0,14.0,29.99,West,270,4.0,19.0,8,0.00,,,0.00,Weather View 32 v70,2013-05-26 21:04:00,
2013-05-26 15:09:00,81.0,14.0,29.99,West,270,6.0,19.0,8,0.00,,,0.00,Weather View 32 v70,2013-05-26 21:09:00,
2013-05-26 15:14:00,81.0,7.6,29.99,SSE,157,9.0,20.0,6,0.00,,,0.00,Weather View 32 v70,2013-05-26 21:14:00,
2013-05-26 15:19:00,81.0,7.6,29.98,South,180,5.0,20.0,6,0.00,,,0.00,Weather View 32 v70,2013-05-26 21:19:00,
2013-05-26 15:24:00,81.0,14.0,29.98,SSW,202,7.0,21.0,8,0.00,,,0.00,Weather View 32 v70,2013-05-26 21:24:00,
2013-05-26 15:29:00,81.0,7.6,29.97,SSW,202,7.0,21.0,6,0.00,,,0.00,Weather View 32 v70,2013-05-26 21:29:00,
2013-05-26 15:34:00,81.0,7.6,29.97,SW,225,2.0,21.0,6,0.00,,,0.00,Weather View 32 v70,2013-05-26 21:34:00,
2013-05-26 15:39:00,81.0,7.6,29.97,SE,135,5.0,21.0,6,0.00,,,0.00,Weather View 32 v70,2013-05-26 21:39:00,
2013-05-26 15:44:00,81.0,11.0,29.97,SE,135,0.0,21.0,7,0.00,,,0.00,Weather View 32 v70,2013-05-26 21:44:00,
2013-05-26 15:49:00,82.0,14.8,29.96,WSW,247,6.0,21.0,8,0.00,,,0.00,Weather View 32 v70,2013-05-26 21:49:00,
2013-05-26 15:54:00,82.0,11.7,29.96,NW,315,12.0,21.0,7,0.00,,,0.00,Weather View 32 v70,2013-05-26 21:54:00,
2013-05-26 15:59:00,81.0,11.0,29.96,North,360,14.0,21.0,7,0.00,,,0.00,Weather View 32 v70,2013-05-26 21:59:00,
2013-05-26 16:04:00,79.0,9.5,29.96,NE,45,6.0,21.0,7,0.00,,,0.00,Weather View 32 v70,2013-05-26 22:04:00,
2013-05-26 16:09:00,80.0,16.0,29.96,NW,315,8.0,21.0,9,0.00,,,0.00,Weather View 32 v70,2013-05-26 22:09:00,
2013-05-26 16:14:00,80.0,6.9,29.96,North,360,9.0,21.0,6,0.00,,,0.00,Weather View 32 v70,2013-05-26 22:14:00,
2013-05-26 16:19:00,81.0,14.0,29.95,West,270,4.0,21.0,8,0.00,,,0.00,Weather View 32 v70,2013-05-26 22:19:00,
2013-05-26 16:24:00,81.0,7.6,29.95,South,180,8.0,17.0,6,0.00,,,0.00,Weather View 32 v70,2013-05-26 22:24:00,
2013-05-26 16:29:00,81.0,11.0,29.95,West,270,9.0,15.0,7,0.00,,,0.00,Weather View 32 v70,2013-05-26 22:29:00,
2013-05-26 16:34:00,82.0,17.5,29.95,NW,315,2.0,15.0,9,0.00,,,0.00,Weather View 32 v70,2013-05-26 22:34:00,
2013-05-26 16:39:00,82.0,14.8,29.94,West,270,3.0,15.0,8,0.00,,,0.00,Weather View 32 v70,2013-05-26 22:39:00,
2013-05-26 16:44:00,83.0,9.0,29.94,SW,225,5.0,16.0,6,0.00,,,0.00,Weather View 32 v70,2013-05-26 22:44:00,
2013-05-26 16:49:00,83.0,15.5,29.94,West,270,3.0,16.0,8,0.00,,,0.00,Weather View 32 v70,2013-05-26 22:49:00,
2013-05-26 16:54:00,83.0,9.0,29.94,SW,225,3.0,16.0,6,0.00,,,0.00,Weather View 32 v70,2013-05-26 22:54:00,
2013-05-26 16:59:00,83.0,5.0,29.93,SE,135,3.0,16.0,5,0.00,,,0.00,Weather View 32 v70,2013-05-26 22:59:00,
2013-05-26 17:04:00,83.0,9.0,29.93,West,270,6.0,16.0,6,0.00,,,0.00,Weather View 32 v70,2013-05-26 23:04:00,
2013-05-26 17:09:00,83.0,15.5,29.92,NW,315,4.0,16.0,8,0.00,,,0.00,Weather View 32 v70,2013-05-26 23:09:00,
2013-05-26 17:14:00,83.0,9.0,29.92,South,180,6.0,16.0,6,0.00,,,0.00,Weather View 32 v70,2013-05-26 23:14:00,
2013-05-26 17:19:00,83.0,5.0,29.92,SW,225,7.0,16.0,5,0.00,,,0.00,Weather View 32 v70,2013-05-26 23:19:00,
2013-05-26 17:24:00,83.0,9.0,29.92,NW,315,6.0,16.0,6,0.00,,,0.00,Weather View 32 v70,2013-05-26 23:24:00,
2013-05-26 17:29:00,83.0,9.0,29.92,WSW,247,7.0,16.0,6,0.00,,,0.00,Weather View 32 v70,2013-05-26 23:29:00,
2013-05-26 17:34:00,83.0,9.0,29.92,North,360,7.0,16.0,6,0.00,,,0.00,Weather View 32 v70,2013-05-26 23:34:00,
2013-05-26 17:39:00,82.0,14.8,29.92,West,270,3.0,16.0,8,0.00,,,0.00,Weather View 32 v70,2013-05-26 23:39:00,
2013-05-26 17:44:00,82.0,8.3,29.92,NW,315,9.0,15.0,6,0.00,,,0.00,Weather View 32 v70,2013-05-26 23:44:00,
2013-05-26 17:49:00,82.0,8.3,29.92,WNW,292,5.0,15.0,6,0.00,,,0.00,Weather View 32 v70,2013-05-26 23:49:00,
2013-05-26 17:54:00,82.0,11.7,29.92,NW,315,2.0,16.0,7,0.00,,,0.00,Weather View 32 v70,2013-05-26 23:54:00,
2013-05-26 17:59:00,82.0,8.3,29.92,NW,315,10.0,16.0,6,0.00,,,0.00,Weather View 32 v70,2013-05-26 23:59:00,
2013-05-26 18:04:00,82.0,8.3,29.92,North,360,0.0,16.0,6,0.00,,,0.00,Weather View 32 v70,2013-05-27 00:04:00,
2013-05-26 18:09:00,82.0,11.7,29.92,SW,225,4.0,16.0,7,0.00,,,0.00,Weather View 32 v70,2013-05-27 00:09:00,
2013-05-26 18:14:00,82.0,11.7,29.92,West,270,8.0,16.0,7,0.00,,,0.00,Weather View 32 v70,2013-05-27 00:14:00,
2013-05-26 18:19:00,82.0,8.3,29.92,West,270,7.0,16.0,6,0.00,,,0.00,Weather View 32 v70,2013-05-27 00:19:00,
2013-05-26 18:24:00,82.0,14.8,29.92,West,270,8.0,16.0,8,0.00,,,0.00,Weather View 32 v70,2013-05-27 00:24:00,
2013-05-26 18:29:00,82.0,8.3,29.92,NW,315,6.0,16.0,6,0.00,,,0.00,Weather View 32 v70,2013-05-27 00:29:00,
2013-05-26 18:34:00,82.0,8.3,29.92,SSW,202,4.0,16.0,6,0.00,,,0.00,Weather View 32 v70,2013-05-27 00:34:00,
2013-05-26 18:39:00,81.0,7.6,29.92,West,270,11.0,16.0,6,0.00,,,0.00,Weather View 32 v70,2013-05-27 00:39:00,
2013-05-26 18:44:00,81.0,7.6,29.92,West,270,0.0,16.0,6,0.00,,,0.00,Weather View 32 v70,2013-05-27 00:44:00,
2013-05-26 18:49:00,81.0,7.6,29.92,West,270,10.0,16.0,6,0.00,,,0.00,Weather View 32 v70,2013-05-27 00:49:00,
2013-05-26 18:54:00,81.0,7.6,29.92,WNW,292,5.0,16.0,6,0.00,,,0.00,Weather View 32 v70,2013-05-27 00:54:00,
2013-05-26 18:59:00,81.0,7.6,29.92,West,270,7.0,15.0,6,0.00,,,0.00,Weather View 32 v70,2013-05-27 00:59:00,
2013-05-26 19:04:00,81.0,3.6,29.92,West,270,3.0,15.0,5,0.00,,,0.00,Weather View 32 v70,2013-05-27 01:04:00,
2013-05-26 19:09:00,81.0,7.6,29.92,West,270,10.0,15.0,6,0.00,,,0.00,Weather View 32 v70,2013-05-27 01:09:00,
2013-05-26 19:14:00,80.0,6.9,29.92,NW,315,4.0,15.0,6,0.00,,,0.00,Weather View 32 v70,2013-05-27 01:14:00,
2013-05-26 19:19:00,80.0,6.9,29.92,West,270,5.0,15.0,6,0.00,,,0.00,Weather View 32 v70,2013-05-27 01:19:00,
2013-05-26 19:24:00,80.0,2.9,29.92,SW,225,5.0,15.0,5,0.00,,,0.00,Weather View 32 v70,2013-05-27 01:24:00,
2013-05-26 19:29:00,80.0,6.9,29.92,WSW,247,6.0,15.0,6,0.00,,,0.00,Weather View 32 v70,2013-05-27 01:29:00,
2013-05-26 19:34:00,79.0,6.1,29.92,West,270,9.0,15.0,6,0.00,,,0.00,Weather View 32 v70,2013-05-27 01:34:00,
2013-05-26 19:39:00,79.0,6.1,29.93,West,270,5.0,15.0,6,0.00,,,0.00,Weather View 32 v70,2013-05-27 01:39:00,
2013-05-26 19:44:00,79.0,6.1,29.93,NW,315,4.0,15.0,6,0.00,,,0.00,Weather View 32 v70,2013-05-27 01:44:00,
2013-05-26 19:49:00,78.0,5.4,29.93,West,270,6.0,15.0,6,0.00,,,0.00,Weather View 32 v70,2013-05-27 01:49:00,
2013-05-26 19:54:00,78.0,8.8,29.93,West,270,4.0,15.0,7,0.00,,,0.00,Weather View 32 v70,2013-05-27 01:54:00,
2013-05-26 19:59:00,78.0,8.8,29.93,West,270,8.0,15.0,7,0.00,,,0.00,Weather View 32 v70,2013-05-27 01:59:00,
2013-05-26 20:04:00,77.0,11.1,29.93,West,270,9.0,15.0,8,0.00,,,0.00,Weather View 32 v70,2013-05-27 02:04:00,
2013-05-26 20:09:00,77.0,11.1,29.94,WSW,247,2.0,15.0,8,0.00,,,0.00,Weather View 32 v70,2013-05-27 02:09:00,
2013-05-26 20:14:00,76.0,10.3,29.94,West,270,4.0,15.0,8,0.00,,,0.00,Weather View 32 v70,2013-05-27 02:14:00,
2013-05-26 20:19:00,75.0,12.2,29.94,NW,315,3.0,15.0,9,0.00,,,0.00,Weather View 32 v70,2013-05-27 02:19:00,
2013-05-26 20:24:00,75.0,12.2,29.94,West,270,5.0,15.0,9,0.00,,,0.00,Weather View 32 v70,2013-05-27 02:24:00,
2013-05-26 20:29:00,74.0,11.5,29.95,West,270,6.0,14.0,9,0.00,,,0.00,Weather View 32 v70,2013-05-27 02:29:00,
2013-05-26 20:34:00,73.0,10.7,29.95,NW,315,2.0,14.0,9,0.00,,,0.00,Weather View 32 v70,2013-05-27 02:34:00,
2013-05-26 20:39:00,73.0,8.1,29.96,WNW,292,3.0,14.0,8,0.00,,,0.00,Weather View 32 v70,2013-05-27 02:39:00,
2013-05-26 20:44:00,73.0,10.7,29.96,NW,315,3.0,14.0,9,0.00,,,0.00,Weather View 32 v70,2013-05-27 02:44:00,
2013-05-26 20:49:00,72.0,10.0,29.96,West,270,4.0,14.0,9,0.00,,,0.00,Weather View 32 v70,2013-05-27 02:49:00,
2013-05-26 20:54:00,72.0,10.0,29.96,NW,315,5.0,14.0,9,0.00,,,0.00,Weather View 32 v70,2013-05-27 02:54:00,
2013-05-26 20:59:00,72.0,10.0,29.96,NW,315,5.0,11.0,9,0.00,,,0.00,Weather View 32 v70,2013-05-27 02:59:00,
2013-05-26 21:04:00,71.0,9.2,29.96,NW,315,4.0,11.0,9,0.00,,,0.00,Weather View 32 v70,2013-05-27 03:04:00,
2013-05-26 21:09:00,71.0,9.2,29.97,West,270,3.0,11.0,9,0.00,,,0.00,Weather View 32 v70,2013-05-27 03:09:00,
2013-05-26 21:14:00,70.0,8.5,29.97,West,270,3.0,11.0,9,0.00,,,0.00,Weather View 32 v70,2013-05-27 03:14:00,
2013-05-26 21:19:00,70.0,8.5,29.97,West,270,2.0,11.0,9,0.00,,,0.00,Weather View 32 v70,2013-05-27 03:19:00,
2013-05-26 21:24:00,69.0,10.1,29.97,West,270,2.0,11.0,10,0.00,,,0.00,Weather View 32 v70,2013-05-27 03:24:00,
2013-05-26 21:29:00,69.0,10.1,29.97,West,270,3.0,9.0,10,0.00,,,0.00,Weather View 32 v70,2013-05-27 03:29:00,
2013-05-26 21:34:00,68.0,11.4,29.97,West,270,2.0,9.0,11,0.00,,,0.00,Weather View 32 v70,2013-05-27 03:34:00,
2013-05-26 21:39:00,68.0,9.3,29.98,West,270,4.0,9.0,10,0.00,,,0.00,Weather View 32 v70,2013-05-27 03:39:00,
2013-05-26 21:44:00,67.0,10.7,29.98,West,270,2.0,9.0,11,0.00,,,0.00,Weather View 32 v70,2013-05-27 03:44:00,
2013-05-26 21:49:00,67.0,12.6,29.98,West,270,2.0,9.0,12,0.00,,,0.00,Weather View 32 v70,2013-05-27 03:49:00,
2013-05-26 21:54:00,66.0,11.8,29.98,West,270,0.0,9.0,12,0.00,,,0.00,Weather View 32 v70,2013-05-27 03:54:00,
2013-05-26 21:59:00,66.0,9.9,29.99,West,270,1.0,9.0,11,0.00,,,0.00,Weather View 32 v70,2013-05-27 03:59:00,
2013-05-26 22:01:00,66.0,9.9,29.99,West,270,2.0,7.0,11,0.00,,,0.00,Weather View 32 v70,2013-05-27 04:01:00,
2013-05-26 22:06:00,65.0,11.1,29.99,West,270,1.0,5.0,12,0.00,,,0.00,Weather View 32 v70,2013-05-27 04:06:00,
2013-05-26 22:11:00,65.0,11.1,30.00,West,270,3.0,5.0,12,0.00,,,0.00,Weather View 32 v70,2013-05-27 04:11:00,
2013-05-26 22:16:00,64.0,10.3,30.00,West,270,3.0,5.0,12,0.00,,,0.00,Weather View 32 v70,2013-05-27 04:16:00,
2013-05-26 22:21:00,64.0,10.3,30.00,West,270,3.0,5.0,12,0.00,,,0.00,Weather View 32 v70,2013-05-27 04:21:00,
2013-05-26 22:26:00,64.0,12.1,30.00,West,270,2.0,5.0,13,0.00,,,0.00,Weather View 32 v70,2013-05-27 04:26:00,
2013-05-26 22:31:00,64.0,12.1,30.00,West,270,4.0,5.0,13,0.00,,,0.00,Weather View 32 v70,2013-05-27 04:31:00,
2013-05-26 22:36:00,63.0,16.0,30.00,West,270,3.0,5.0,16,0.00,,,0.00,Weather View 32 v70,2013-05-27 04:36:00,
2013-05-26 22:41:00,63.0,11.3,30.01,West,270,1.0,5.0,13,0.00,,,0.00,Weather View 32 v70,2013-05-27 04:41:00,
2013-05-26 22:46:00,62.0,10.5,30.01,West,270,1.0,5.0,13,0.00,,,0.00,Weather View 32 v70,2013-05-27 04:46:00,
2013-05-26 22:51:00,62.0,8.7,30.01,West,270,2.0,5.0,12,0.00,,,0.00,Weather View 32 v70,2013-05-27 04:51:00,
2013-05-26 22:56:00,62.0,8.7,30.01,West,270,1.0,5.0,12,0.00,,,0.00,Weather View 32 v70,2013-05-27 04:56:00,
2013-05-26 23:01:00,61.0,12.9,30.01,West,270,2.0,5.0,15,0.00,,,0.00,Weather View 32 v70,2013-05-27 05:01:00,
2013-05-26 23:06:00,61.0,12.9,30.01,West,270,2.0,5.0,15,0.00,,,0.00,Weather View 32 v70,2013-05-27 05:06:00,
2013-05-26 23:11:00,60.0,13.6,30.02,West,270,3.0,5.0,16,0.00,,,0.00,Weather View 32 v70,2013-05-27 05:11:00,
2013-05-26 23:16:00,60.0,12.1,30.02,WNW,292,2.0,5.0,15,0.00,,,0.00,Weather View 32 v70,2013-05-27 05:16:00,
2013-05-26 23:21:00,60.0,15.0,30.02,WNW,292,4.0,5.0,17,0.00,,,0.00,Weather View 32 v70,2013-05-27 05:21:00,
2013-05-26 23:26:00,60.0,15.0,30.02,WNW,292,3.0,6.0,17,0.00,,,0.00,Weather View 32 v70,2013-05-27 05:26:00,
2013-05-26 23:31:00,60.0,12.1,30.02,WNW,292,5.0,6.0,15,0.00,,,0.00,Weather View 32 v70,2013-05-27 05:31:00,
2013-05-26 23:36:00,60.0,12.1,30.02,WNW,292,4.0,6.0,15,0.00,,,0.00,Weather View 32 v70,2013-05-27 05:36:00,
2013-05-26 23:41:00,60.0,12.1,30.01,West,270,3.0,9.0,15,0.00,,,0.00,Weather View 32 v70,2013-05-27 05:41:00,
2013-05-26 23:46:00,60.0,12.1,30.01,West,270,1.0,9.0,15,0.00,,,0.00,Weather View 32 v70,2013-05-27 05:46:00,
2013-05-26 23:51:00,60.0,15.0,30.02,West,270,3.0,9.0,17,0.00,,,0.00,Weather View 32 v70,2013-05-27 05:51:00,
2013-05-26 23:56:00,59.0,14.2,30.02,NW,315,1.0,9.0,17,0.00,,,0.00,Weather View 32 v70,2013-05-27 05:56:00,